Time;durP1;ratioP1;P1;durP2;ratioP2;P2;SDS_P1;SDS_P2;PMS_P1;PMS_P2;Temp;Humidity;BMP_temperature;BMP_pressure;BME280_temperature;BME280_humidity;BME280_pressure;Samples;Min_cycle;Max_cycle;Signal;HPM_P1;HPM_P2
2024/03/24 00:02:13;;;;;;;8.48;6.20;;;;;;;7.35;43.09;93220.94;5037499;28;20055;-70
2024/03/24 00:04:38;;;;;;;9.25;5.65;;;;;;;7.46;42.54;93209.78;5036516;28;20091;-70
2024/03/24 00:07:04;;;;;;;9.75;5.55;;;;;;;7.65;42.24;93220.88;5036967;28;20434;-70
2024/03/24 00:09:29;;;;;;;9.77;6.03;;;;;;;7.75;41.90;93209.25;5041125;28;20522;-70
2024/03/24 00:11:55;;;;;;;8.30;5.70;;;;;;;7.72;41.61;93209.84;5043720;28;20734;-70
2024/03/24 00:14:20;;;;;;;12.02;6.47;;;;;;;7.69;42.02;93219.19;5044276;28;20044;-70
2024/03/24 00:16:45;;;;;;;8.32;5.38;;;;;;;7.37;42.41;93224.09;5039688;28;20045;-70
2024/03/24 00:19:11;;;;;;;8.57;6.57;;;;;;;7.26;43.15;93215.66;5043982;28;20366;-70
2024/03/24 00:21:36;;;;;;;10.32;6.65;;;;;;;7.54;42.85;93216.97;5021758;28;20014;-70
2024/03/24 00:24:03;;;;;;;9.25;5.65;;;;;;;6.63;43.93;93211.47;5021500;28;20114;-70
2024/03/24 00:26:29;;;;;;;7.30;4.90;;;;;;;7.06;43.38;93197.69;5019000;28;20522;-70
2024/03/24 00:28:54;;;;;;;8.15;5.82;;;;;;;7.39;42.64;93206.03;5020334;28;20038;-70
2024/03/24 00:31:20;;;;;;;8.73;4.60;;;;;;;7.53;42.07;93196.88;5019407;28;20025;-70
2024/03/24 00:33:45;;;;;;;7.15;5.13;;;;;;;7.57;42.55;93199.72;5019370;28;20072;-70
2024/03/24 00:36:11;;;;;;;8.52;5.03;;;;;;;7.31;42.77;93202.28;5018827;28;20141;-70
2024/03/24 00:38:36;;;;;;;7.15;4.78;;;;;;;6.92;43.92;93207.56;5026434;28;20411;-70
2024/03/24 00:41:02;;;;;;;8.90;5.13;;;;;;;7.39;42.91;93190.94;5020451;28;20040;-70
2024/03/24 00:43:28;;;;;;;6.28;4.60;;;;;;;7.48;42.40;93181.19;5023971;28;20060;-70
2024/03/24 00:45:53;;;;;;;6.07;4.95;;;;;;;7.37;42.62;93190.47;5025332;28;20053;-70
2024/03/24 00:48:18;;;;;;;9.65;4.63;;;;;;;7.44;42.20;93182.84;5020428;28;20513;-70
2024/03/24 00:50:45;;;;;;;7.38;5.25;;;;;;;7.61;42.04;93174.19;5020578;28;20116;-70
2024/03/24 00:53:10;;;;;;;7.22;4.90;;;;;;;7.59;42.10;93174.47;5028366;28;20459;-69
2024/03/24 00:55:35;;;;;;;9.38;5.38;;;;;;;7.65;41.74;93175.91;5043383;28;20072;-70
2024/03/24 00:58:01;;;;;;;7.47;5.22;;;;;;;7.69;41.43;93174.19;5045145;28;20016;-70
2024/03/24 01:00:27;;;;;;;9.98;6.22;;;;;;;7.54;41.66;93171.19;5039138;28;20438;-70
2024/03/24 01:02:53;;;;;;;8.75;5.53;;;;;;;7.69;41.50;93168.88;5038750;28;20501;-70
2024/03/24 01:05:18;;;;;;;11.88;5.75;;;;;;;7.75;41.45;93160.84;5044132;28;20049;-70
2024/03/24 01:07:48;;;;;;;20.15;6.43;;;;;;;7.83;42.14;93162.69;5042567;28;20056;-70
2024/03/24 01:10:13;;;;;;;9.65;4.90;;;;;;;7.91;41.56;93154.00;5039666;28;20557;-70
2024/03/24 01:12:38;;;;;;;10.07;5.28;;;;;;;7.96;40.69;93146.69;5045163;28;20029;-70
2024/03/24 01:15:04;;;;;;;9.13;5.53;;;;;;;7.82;41.13;93146.06;5044164;28;20064;-70
2024/03/24 01:17:30;;;;;;;8.00;5.35;;;;;;;7.94;40.75;93135.59;5045886;28;20046;-70
2024/03/24 01:19:55;;;;;;;8.82;5.40;;;;;;;7.96;40.39;93135.31;5039288;28;20045;-70
2024/03/24 01:22:20;;;;;;;7.70;5.60;;;;;;;8.02;40.48;93136.72;5040634;28;20125;-70
2024/03/24 01:24:46;;;;;;;10.38;5.68;;;;;;;8.08;39.85;93144.16;5044202;28;20045;-70
2024/03/24 01:27:11;;;;;;;8.65;5.93;;;;;;;8.10;39.61;93141.22;5042619;28;20043;-70
2024/03/24 01:29:36;;;;;;;8.63;5.97;;;;;;;8.14;40.12;93136.84;5042927;28;20183;-70
2024/03/24 01:32:02;;;;;;;8.38;5.93;;;;;;;8.04;40.57;93126.56;5043139;28;20049;-71
2024/03/24 01:34:27;;;;;;;7.68;5.30;;;;;;;8.18;39.03;93121.88;5040660;28;20033;-70
2024/03/24 01:36:53;;;;;;;7.25;5.78;;;;;;;8.08;39.88;93128.28;5049164;28;20433;-71
2024/03/24 01:39:18;;;;;;;9.57;5.32;;;;;;;8.03;39.40;93136.38;5042797;28;20056;-70
2024/03/24 01:41:43;;;;;;;9.65;5.82;;;;;;;7.97;39.80;93134.22;5042113;28;20414;-71
2024/03/24 01:44:09;;;;;;;9.18;6.00;;;;;;;8.10;39.76;93127.97;5039381;28;20561;-71
2024/03/24 01:46:34;;;;;;;7.80;5.43;;;;;;;8.14;39.73;93120.94;5044398;28;20124;-70
2024/03/24 01:49:00;;;;;;;9.02;5.47;;;;;;;8.33;39.22;93124.03;5038598;28;20742;-70
2024/03/24 01:51:26;;;;;;;8.70;5.80;;;;;;;8.33;39.37;93124.03;5042183;28;20453;-70
2024/03/24 01:53:53;;;;;;;9.48;5.45;;;;;;;8.06;39.98;93119.09;5047409;28;20060;-70
2024/03/24 01:56:19;;;;;;;8.20;5.22;;;;;;;8.24;40.08;93120.63;5045221;28;20060;-71
2024/03/24 01:58:44;;;;;;;8.55;5.50;;;;;;;8.24;39.97;93117.97;5040621;28;20448;-70
2024/03/24 02:01:10;;;;;;;6.13;5.05;;;;;;;8.29;39.93;93120.47;5038315;28;20021;-70
2024/03/24 02:03:37;;;;;;;9.23;5.95;;;;;;;8.27;40.52;93117.34;5045909;28;20021;-71
2024/03/24 02:06:03;;;;;;;6.20;4.68;;;;;;;8.41;40.35;93127.78;5047406;28;20037;-71
2024/03/24 02:08:29;;;;;;;7.18;5.03;;;;;;;8.29;40.30;93123.09;5042432;28;20124;-70
2024/03/24 02:10:55;;;;;;;12.60;5.70;;;;;;;8.33;39.33;93129.31;5044643;28;20152;-71
2024/03/24 02:13:21;;;;;;;16.30;6.35;;;;;;;8.08;39.88;93116.91;5040274;28;20075;-70
2024/03/24 02:15:53;;;;;;;9.93;5.68;;;;;;;8.24;39.95;93111.91;5047066;28;20021;-71
2024/03/24 02:18:19;;;;;;;8.45;5.55;;;;;;;8.12;40.93;93112.53;5042966;28;20044;-71
2024/03/24 02:20:44;;;;;;;13.95;6.40;;;;;;;8.32;40.07;93106.56;5042134;28;20036;-71
2024/03/24 02:23:10;;;;;;;6.90;4.40;;;;;;;8.42;39.57;93106.25;5043253;28;20034;-70
2024/03/24 02:25:35;;;;;;;11.40;5.35;;;;;;;8.38;39.67;93110.63;5037794;28;20041;-71
2024/03/24 02:28:01;;;;;;;7.20;4.70;;;;;;;8.24;40.59;93117.19;5039447;28;20025;-70
2024/03/24 02:30:27;;;;;;;12.65;5.57;;;;;;;8.42;40.07;93108.88;5043074;28;20025;-70
2024/03/24 02:32:53;;;;;;;6.20;4.57;;;;;;;8.56;39.60;93098.09;5045054;28;20516;-71
2024/03/24 02:35:18;;;;;;;9.05;5.05;;;;;;;8.65;39.32;93103.38;5043224;28;20435;-70
2024/03/24 02:37:44;;;;;;;6.32;4.85;;;;;;;8.59;39.45;93095.59;5040971;28;20091;-71
2024/03/24 02:40:10;;;;;;;10.10;4.90;;;;;;;8.56;39.27;93093.56;5043104;28;20077;-71
2024/03/24 02:42:36;;;;;;;8.02;5.07;;;;;;;7.66;40.32;93095.41;5045484;28;20032;-71
2024/03/24 02:45:06;;;;;;;9.70;5.90;;;;;;;8.11;39.86;93095.09;5028196;28;20034;-70
2024/03/24 02:47:32;;;;;;;7.80;5.25;;;;;;;8.30;39.91;93098.19;5023730;28;20030;-70
2024/03/24 02:50:01;;;;;;;9.20;5.57;;;;;;;8.37;40.21;93097.66;5019516;28;20049;-71
2024/03/24 02:52:26;;;;;;;6.65;3.95;;;;;;;7.96;39.71;93098.22;5018418;28;20056;-70
2024/03/24 02:54:52;;;;;;;9.23;4.55;;;;;;;8.32;38.97;93095.97;5027291;28;20462;-71
2024/03/24 02:57:17;;;;;;;8.15;4.85;;;;;;;7.85;40.78;93099.63;5016495;28;20061;-70
2024/03/24 02:59:42;;;;;;;7.72;4.93;;;;;;;8.13;39.61;93093.69;5018454;28;20056;-71
2024/03/24 03:02:08;;;;;;;6.10;4.72;;;;;;;7.43;41.46;93115.19;5018891;28;20053;-71
2024/03/24 03:04:33;;;;;;;7.40;4.85;;;;;;;7.70;40.43;93096.34;5020930;28;20510;-70
2024/03/24 03:06:59;;;;;;;9.82;5.05;;;;;;;8.05;39.95;93091.06;5017214;28;20034;-70
2024/03/24 03:09:26;;;;;;;6.00;4.45;;;;;;;7.66;40.36;93103.34;5022787;28;20038;-71
2024/03/24 03:11:52;;;;;;;6.40;4.82;;;;;;;7.92;40.45;93105.25;5013761;28;20128;-70
2024/03/24 03:14:17;;;;;;;7.15;4.43;;;;;;;8.18;40.54;93102.53;5015048;28;20141;-70
2024/03/24 03:16:43;;;;;;;6.97;4.65;;;;;;;8.35;39.86;93097.22;5016961;28;20064;-70
2024/03/24 03:19:08;;;;;;;8.15;4.65;;;;;;;7.88;40.66;93099.78;5021351;28;20238;-70
2024/03/24 03:21:33;;;;;;;5.65;4.22;;;;;;;8.20;39.78;93095.84;5024283;28;20025;-71
2024/03/24 03:23:59;;;;;;;5.93;4.18;;;;;;;8.29;39.65;93086.03;5020517;28;20581;-72
2024/03/24 03:26:25;;;;;;;7.43;4.28;;;;;;;8.47;39.70;93084.88;5018515;28;20041;-70
2024/03/24 03:28:50;;;;;;;4.90;4.38;;;;;;;7.62;41.65;93097.13;5025410;28;20030;-71
2024/03/24 03:31:16;;;;;;;6.45;5.13;;;;;;;7.91;40.58;93095.75;5012812;28;20367;-70
2024/03/24 03:33:42;;;;;;;6.30;4.40;;;;;;;7.69;41.60;93086.06;5023219;28;20021;-70
2024/03/24 03:36:07;;;;;;;7.95;4.95;;;;;;;7.81;40.93;93090.78;5021421;28;20026;-71
2024/03/24 03:38:33;;;;;;;5.78;5.13;;;;;;;7.75;41.99;93090.16;5021780;28;20061;-71
2024/03/24 03:40:59;;;;;;;5.78;4.60;;;;;;;8.01;41.06;93082.97;5025673;28;20055;-71
2024/03/24 03:43:24;;;;;;;8.10;4.68;;;;;;;8.01;40.62;93068.94;5024164;28;20707;-70
2024/03/24 03:45:50;;;;;;;6.85;4.25;;;;;;;8.10;40.63;93072.34;5043023;28;20068;-70
2024/03/24 03:48:15;;;;;;;8.40;4.82;;;;;;;8.21;40.54;93070.94;5044032;28;20401;-70
2024/03/24 03:50:41;;;;;;;7.97;4.90;;;;;;;8.33;39.76;93073.69;5048676;28;20375;-70
2024/03/24 03:53:07;;;;;;;6.88;4.63;;;;;;;8.37;39.97;93073.81;5040131;28;20034;-70
2024/03/24 03:55:33;;;;;;;6.80;4.70;;;;;;;8.02;41.16;93091.69;5038083;28;20517;-70
2024/03/24 03:58:02;;;;;;;9.35;5.47;;;;;;;7.73;41.15;93085.16;5037796;28;20236;-70
2024/03/24 04:00:27;;;;;;;8.30;5.65;;;;;;;7.59;41.27;93062.56;5048042;28;20040;-71
2024/03/24 04:02:53;;;;;;;6.03;5.00;;;;;;;7.27;42.95;93085.75;5044773;28;20033;-70
2024/03/24 04:05:18;;;;;;;7.95;5.07;;;;;;;7.59;42.02;93083.72;5042781;28;20036;-71
2024/03/24 04:07:44;;;;;;;8.75;4.97;;;;;;;7.69;42.81;93084.19;5039505;28;20038;-70
2024/03/24 04:10:09;;;;;;;7.22;5.00;;;;;;;7.94;42.31;93076.56;5032342;28;20041;-70
2024/03/24 04:12:36;;;;;;;10.13;4.90;;;;;;;7.84;42.16;93079.53;5033187;28;20021;-70
2024/03/24 04:15:05;;;;;;;9.98;4.85;;;;;;;7.95;41.88;93078.13;5045889;28;20486;-70
2024/03/24 04:17:30;;;;;;;8.30;5.10;;;;;;;8.17;40.81;93072.63;5043499;28;20528;-70
2024/03/24 04:19:56;;;;;;;7.50;5.47;;;;;;;8.19;41.11;93070.47;5040982;28;20037;-70
2024/03/24 04:22:22;;;;;;;8.23;5.43;;;;;;;7.69;41.71;93083.41;5040658;28;20436;-70
2024/03/24 04:24:49;;;;;;;6.70;5.40;;;;;;;7.18;43.29;93092.13;5031201;28;20437;-70
2024/03/24 04:27:17;;;;;;;8.20;5.55;;;;;;;7.38;42.78;93094.16;5041331;28;20068;-70
2024/03/24 04:29:43;;;;;;;9.05;6.10;;;;;;;6.89;43.72;93097.97;5047172;28;20033;-70
2024/03/24 04:32:09;;;;;;;18.55;10.43;;;;;;;6.42;44.90;93096.81;5041473;28;20470;-71
2024/03/24 04:34:35;;;;;;;14.50;8.65;;;;;;;6.82;44.24;93085.19;5043737;28;20083;-71
2024/03/24 04:37:00;;;;;;;15.70;9.95;;;;;;;6.90;44.30;93104.03;5038518;28;20445;-71
2024/03/24 04:39:26;;;;;;;11.02;8.27;;;;;;;7.02;44.33;93109.47;5044234;28;20047;-70
2024/03/24 04:41:51;;;;;;;12.85;8.82;;;;;;;7.18;43.66;93110.63;5044339;28;20504;-70
2024/03/24 04:44:17;;;;;;;12.85;8.52;;;;;;;6.48;45.15;93121.25;5034280;28;20037;-70
2024/03/24 04:46:42;;;;;;;10.32;7.32;;;;;;;6.23;45.65;93115.53;5035428;28;20514;-70
2024/03/24 04:49:07;;;;;;;13.95;8.00;;;;;;;5.92;46.49;93125.25;5037646;28;20013;-70
2024/03/24 04:51:33;;;;;;;12.05;6.90;;;;;;;6.02;46.57;93132.16;5036543;28;20109;-71
2024/03/24 04:53:58;;;;;;;9.85;7.43;;;;;;;6.04;46.91;93116.78;5045536;28;20635;-70
2024/03/24 04:56:23;;;;;;;15.07;7.13;;;;;;;6.06;46.80;93123.34;5036970;28;20406;-70
2024/03/24 04:58:49;;;;;;;13.70;7.00;;;;;;;6.50;45.73;93111.97;5042053;28;20394;-70
2024/03/24 05:01:15;;;;;;;11.88;8.25;;;;;;;6.75;44.94;93129.75;5042665;28;20033;-70
2024/03/24 05:03:41;;;;;;;9.52;6.80;;;;;;;6.80;45.40;93126.19;5038040;28;20407;-70
2024/03/24 05:06:06;;;;;;;10.40;6.88;;;;;;;7.12;45.10;93117.91;5033828;28;20162;-70
2024/03/24 05:08:36;;;;;;;10.90;6.20;;;;;;;6.88;45.42;93122.03;5046772;28;20498;-70
2024/03/24 05:11:05;;;;;;;10.85;6.55;;;;;;;7.13;45.16;93110.78;5046837;28;20041;-70
2024/03/24 05:13:32;;;;;;;10.95;6.85;;;;;;;7.40;44.83;93115.78;5047653;28;20080;-70
2024/03/24 05:15:57;;;;;;;10.70;7.28;;;;;;;7.72;43.80;93114.56;5040625;28;20074;-70
2024/03/24 05:18:23;;;;;;;11.00;6.70;;;;;;;7.58;44.91;93117.34;5043971;28;20112;-71
2024/03/24 05:20:48;;;;;;;8.57;6.50;;;;;;;7.86;43.94;93117.09;5046523;28;20374;-71
2024/03/24 05:23:18;;;;;;;11.20;7.15;;;;;;;7.79;44.28;93103.53;5053173;28;20033;-70
2024/03/24 05:25:53;;;;;;;11.55;7.18;;;;;;;8.05;43.74;93099.78;5035640;28;20445;-70
2024/03/24 05:28:19;;;;;;;15.75;7.35;;;;;;;8.12;43.53;93102.72;5047981;28;20021;-70
2024/03/24 05:30:45;;;;;;;13.75;6.97;;;;;;;8.15;43.18;93082.78;5034242;28;20032;-71
2024/03/24 05:33:11;;;;;;;11.75;7.45;;;;;;;8.41;42.99;93088.78;5037639;28;20037;-69
2024/03/24 05:35:36;;;;;;;16.77;6.55;;;;;;;8.35;42.59;93111.25;5037726;28;20044;-71
2024/03/24 05:38:02;;;;;;;9.82;6.63;;;;;;;8.26;42.83;93101.78;5052000;28;20505;-70
2024/03/24 05:40:27;;;;;;;10.07;6.78;;;;;;;8.43;42.58;93105.16;5042978;28;20040;-70
2024/03/24 05:42:53;;;;;;;16.73;7.55;;;;;;;8.59;42.13;93100.91;5047000;28;20543;-70
2024/03/24 05:45:19;;;;;;;10.90;8.13;;;;;;;8.49;42.88;93109.19;5047161;28;20065;-70
2024/03/24 05:47:44;;;;;;;13.07;7.50;;;;;;;8.44;41.96;93109.34;5032978;28;20049;-71
2024/03/24 05:50:10;;;;;;;11.63;7.88;;;;;;;8.26;42.65;93101.78;5047711;28;20044;-71
2024/03/24 05:52:38;;;;;;;9.90;6.82;;;;;;;8.22;42.42;93112.19;5052740;28;20452;-70
2024/03/24 05:55:04;;;;;;;10.73;6.90;;;;;;;8.40;42.26;93102.34;5050041;28;20061;-70
2024/03/24 05:57:31;;;;;;;10.13;6.78;;;;;;;8.33;41.89;93102.06;5044902;28;20048;-70
2024/03/24 05:59:56;;;;;;;12.73;7.22;;;;;;;8.45;41.63;93110.13;5032913;28;20041;-70
2024/03/24 06:02:21;;;;;;;14.80;7.47;;;;;;;8.35;41.94;93111.25;5032480;28;20429;-71
2024/03/24 06:04:47;;;;;;;12.45;6.53;;;;;;;8.22;42.75;93106.91;5032664;28;20068;-70
2024/03/24 06:07:12;;;;;;;15.05;7.30;;;;;;;8.37;42.87;93108.28;5032843;28;20394;-70
2024/03/24 06:09:38;;;;;;;12.63;6.75;;;;;;;8.72;42.37;93108.94;5033167;28;20021;-70
2024/03/24 06:12:04;;;;;;;12.75;7.72;;;;;;;8.58;42.93;93101.22;5031930;28;20041;-71
2024/03/24 06:14:30;;;;;;;11.30;7.55;;;;;;;8.62;44.04;93111.94;5032566;28;20041;-70
2024/03/24 06:16:56;;;;;;;15.18;8.02;;;;;;;8.29;45.45;93117.81;5031906;28;20436;-71
2024/03/24 06:19:21;;;;;;;14.55;8.98;;;;;;;8.22;45.55;93101.59;5032229;28;20025;-70
2024/03/24 06:21:48;;;;;;;13.93;8.35;;;;;;;8.53;44.90;93107.47;5033029;28;20113;-70
2024/03/24 06:24:14;;;;;;;13.60;7.40;;;;;;;8.36;45.16;93104.88;5032276;28;20095;-71
2024/03/24 06:26:40;;;;;;;9.75;7.60;;;;;;;8.41;45.42;93103.91;5032384;28;20427;-70
2024/03/24 06:29:05;;;;;;;12.77;8.07;;;;;;;8.72;44.92;93099.13;5031683;28;20064;-71
2024/03/24 06:31:30;;;;;;;14.93;7.65;;;;;;;8.64;44.43;93096.50;5032301;28;20478;-71
2024/03/24 06:33:57;;;;;;;9.13;6.82;;;;;;;8.85;43.44;93094.72;5032038;28;20093;-70
2024/03/24 06:36:24;;;;;;;10.55;7.30;;;;;;;9.02;44.15;93097.28;5031454;28;20064;-70
2024/03/24 06:38:49;;;;;;;11.82;7.38;;;;;;;9.31;43.38;93094.63;5031297;28;20045;-70
2024/03/24 06:41:15;;;;;;;12.05;8.23;;;;;;;9.44;43.05;93093.63;5031773;28;20469;-70
2024/03/24 06:43:43;;;;;;;17.42;9.52;;;;;;;9.26;43.36;93086.88;5031466;28;20109;-70
2024/03/24 06:46:11;;;;;;;15.30;9.25;;;;;;;9.05;43.76;93086.00;5031502;28;20045;-70
2024/03/24 06:48:37;;;;;;;11.00;7.78;;;;;;;9.18;43.37;93084.28;5031948;28;20071;-71
2024/03/24 06:51:04;;;;;;;13.10;8.07;;;;;;;9.42;43.00;93090.53;5031671;28;20045;-70
2024/03/24 06:53:29;;;;;;;10.73;8.60;;;;;;;9.80;42.84;93098.34;5031656;28;20092;-70
2024/03/24 06:55:55;;;;;;;15.82;9.23;;;;;;;9.65;42.75;93098.16;5030916;28;20033;-70
2024/03/24 06:58:20;;;;;;;13.10;9.02;;;;;;;9.67;43.29;93098.63;5031387;28;20029;-71
2024/03/24 07:00:51;;;;;;;16.77;9.70;;;;;;;9.89;43.01;93088.44;5031557;28;20022;-70
2024/03/24 07:03:17;;;;;;;11.13;7.95;;;;;;;9.92;42.30;93096.88;5031171;28;20029;-71
2024/03/24 07:05:42;;;;;;;11.98;8.13;;;;;;;10.20;42.00;93101.28;5031509;28;20449;-70
2024/03/24 07:08:07;;;;;;;15.90;7.93;;;;;;;10.07;42.10;93099.69;5030970;28;20033;-70
2024/03/24 07:10:33;;;;;;;11.77;7.75;;;;;;;10.01;41.81;93089.59;5030846;28;20566;-71
2024/03/24 07:12:58;;;;;;;10.88;8.05;;;;;;;10.10;41.68;93093.72;5031442;28;20061;-71
2024/03/24 07:15:23;;;;;;;27.02;8.55;;;;;;;9.89;41.67;93064.53;5028931;28;20044;-70
2024/03/24 07:17:49;;;;;;;19.83;8.35;;;;;;;10.01;41.57;93074.44;5030858;28;20061;-71
2024/03/24 07:20:14;;;;;;;18.67;7.45;;;;;;;10.19;41.58;93081.13;5030831;28;20049;-71
2024/03/24 07:22:40;;;;;;;13.27;8.23;;;;;;;10.31;41.10;93088.38;5030644;28;20029;-71
2024/03/24 07:25:05;;;;;;;14.30;8.05;;;;;;;10.37;40.52;93075.69;5030693;28;20029;-71
2024/03/24 07:27:31;;;;;;;11.30;8.02;;;;;;;10.36;41.10;93071.44;5031239;28;20067;-71
2024/03/24 07:29:56;;;;;;;11.00;7.25;;;;;;;10.48;40.84;93071.47;5031332;28;20465;-71
2024/03/24 07:32:21;;;;;;;8.63;6.63;;;;;;;10.33;42.33;93070.97;5031283;28;20095;-70
2024/03/24 07:34:47;;;;;;;10.10;6.65;;;;;;;10.60;40.75;93056.34;5031249;28;20033;-71
2024/03/24 07:37:13;;;;;;;9.52;6.75;;;;;;;10.53;41.35;93047.34;5030978;28;20032;-71
2024/03/24 07:39:38;;;;;;;8.57;7.13;;;;;;;10.62;41.48;93034.72;5031392;28;20025;-71
2024/03/24 07:42:03;;;;;;;12.70;8.07;;;;;;;10.79;41.07;93036.41;5031080;28;20025;-71
2024/03/24 07:44:29;;;;;;;14.95;8.00;;;;;;;10.68;40.94;93038.72;5030892;28;20665;-71
2024/03/24 07:46:54;;;;;;;13.82;8.40;;;;;;;10.59;41.71;93046.03;5031043;28;20065;-70
2024/03/24 07:49:20;;;;;;;14.38;7.85;;;;;;;10.65;41.80;93050.03;5031044;28;20033;-70
2024/03/24 07:51:45;;;;;;;16.27;7.90;;;;;;;10.58;41.30;93049.78;5030939;28;20445;-71
2024/03/24 07:54:10;;;;;;;10.82;7.70;;;;;;;10.70;41.50;93047.94;5030911;28;20471;-71
2024/03/24 07:56:36;;;;;;;11.50;7.57;;;;;;;10.93;40.58;93053.56;5030613;28;20036;-71
2024/03/24 07:59:01;;;;;;;15.77;10.00;;;;;;;10.93;40.53;93050.91;5031099;28;20034;-70
2024/03/24 08:01:26;;;;;;;12.68;8.25;;;;;;;10.77;41.22;93047.38;5030547;28;20029;-70
2024/03/24 08:03:52;;;;;;;12.93;8.25;;;;;;;10.60;41.62;93031.63;5031040;28;20478;-71
2024/03/24 08:06:17;;;;;;;10.57;7.22;;;;;;;10.63;41.52;93039.72;5030278;28;20537;-71
2024/03/24 08:08:43;;;;;;;12.05;7.95;;;;;;;10.94;41.00;93039.16;5030106;28;20041;-71
2024/03/24 08:11:09;;;;;;;13.48;8.57;;;;;;;11.17;40.50;93037.59;5030275;28;20402;-71
2024/03/24 08:13:34;;;;;;;12.73;7.80;;;;;;;10.92;40.85;93040.59;5030322;28;20040;-70
2024/03/24 08:16:00;;;;;;;11.70;7.97;;;;;;;10.87;40.67;93035.50;5030428;28;20044;-71
2024/03/24 08:18:25;;;;;;;10.55;7.40;;;;;;;11.06;41.24;93035.72;5030266;28;20517;-71
2024/03/24 08:20:51;;;;;;;14.23;9.02;;;;;;;10.93;40.92;93024.31;5030252;28;20073;-71
2024/03/24 08:23:17;;;;;;;15.98;8.57;;;;;;;11.24;40.54;93022.97;5030147;28;20402;-71
2024/03/24 08:25:42;;;;;;;12.30;7.82;;;;;;;11.26;40.46;93010.06;5030770;28;20111;-70
2024/03/24 08:28:08;;;;;;;15.63;9.05;;;;;;;11.34;39.91;93014.50;5034622;28;20405;-71
2024/03/24 08:30:33;;;;;;;11.68;7.68;;;;;;;11.39;40.36;93014.28;5035075;28;20443;-71
2024/03/24 08:32:59;;;;;;;12.27;8.32;;;;;;;11.55;40.00;93015.91;5033803;28;20495;-70
2024/03/24 08:35:25;;;;;;;12.27;8.18;;;;;;;11.58;39.60;93007.25;5034212;28;20128;-71
2024/03/24 08:37:51;;;;;;;16.45;9.32;;;;;;;11.56;39.58;93003.38;5034666;28;20502;-71
2024/03/24 08:40:16;;;;;;;15.30;8.30;;;;;;;11.62;39.29;92991.38;5034389;28;20450;-70
2024/03/24 08:42:43;;;;;;;16.40;8.43;;;;;;;11.73;41.89;92992.44;5034759;28;20051;-71
2024/03/24 08:45:08;;;;;;;12.35;8.45;;;;;;;11.28;40.07;92986.56;5033906;28;20030;-71
2024/03/24 08:47:34;;;;;;;11.15;6.90;;;;;;;10.97;41.60;92982.63;5034403;28;20053;-71
2024/03/24 08:49:59;;;;;;;10.13;6.68;;;;;;;11.66;40.24;92975.47;5033454;28;20033;-71
2024/03/24 08:52:25;;;;;;;10.40;6.72;;;;;;;11.88;38.80;92978.38;5034140;28;20449;-71
2024/03/24 08:54:50;;;;;;;12.73;7.18;;;;;;;12.03;38.31;92963.53;5034631;28;20430;-71
2024/03/24 08:57:16;;;;;;;10.25;7.63;;;;;;;11.76;42.02;92965.13;5033904;28;20037;-71
2024/03/24 08:59:41;;;;;;;9.77;6.93;;;;;;;11.92;40.04;92968.59;5034048;28;20484;-71
2024/03/24 09:02:07;;;;;;;9.27;5.40;;;;;;;11.91;38.14;92969.72;5033942;28;20037;-71
2024/03/24 09:04:32;;;;;;;4.40;3.63;;;;;;;11.67;37.57;92951.19;5034069;28;20105;-71
2024/03/24 09:06:57;;;;;;;5.13;3.58;;;;;;;11.67;37.69;92948.53;5034429;28;20494;-71
2024/03/24 09:09:23;;;;;;;4.43;3.20;;;;;;;11.94;37.47;92950.38;5033424;28;20410;-71
2024/03/24 09:11:48;;;;;;;5.72;3.72;;;;;;;12.08;37.15;92947.28;5033337;28;20029;-70
2024/03/24 09:14:14;;;;;;;6.68;3.88;;;;;;;12.07;36.61;92942.31;5033478;28;20501;-70
2024/03/24 09:16:39;;;;;;;8.60;3.83;;;;;;;12.21;36.64;92937.34;5033861;28;20025;-71
2024/03/24 09:19:04;;;;;;;4.38;3.80;;;;;;;11.92;37.06;92944.63;5033543;28;20026;-70
2024/03/24 09:21:30;;;;;;;5.38;3.95;;;;;;;12.33;37.10;92943.34;5032792;28;20566;-70
2024/03/24 09:23:55;;;;;;;4.53;4.03;;;;;;;12.11;36.88;92930.63;5032940;28;20045;-71
2024/03/24 09:26:21;;;;;;;5.15;3.35;;;;;;;12.13;37.05;92924.94;5033271;28;20037;-71
2024/03/24 09:28:46;;;;;;;6.80;4.05;;;;;;;12.18;37.05;92938.00;5033024;28;20041;-71
2024/03/24 09:31:13;;;;;;;5.03;3.92;;;;;;;12.19;36.84;92931.56;5032791;28;20064;-71
2024/03/24 09:33:38;;;;;;;9.00;4.18;;;;;;;12.20;36.92;92935.78;5033085;28;20072;-70
2024/03/24 09:36:04;;;;;;;5.65;3.85;;;;;;;12.18;37.22;92922.00;5033151;28;20037;-70
2024/03/24 09:38:29;;;;;;;4.47;3.55;;;;;;;12.22;36.84;92933.56;5031760;28;20041;-71
2024/03/24 09:40:55;;;;;;;7.63;4.43;;;;;;;12.35;37.06;92927.00;5032744;28;20117;-71
2024/03/24 09:43:21;;;;;;;5.22;4.05;;;;;;;12.46;36.83;92914.72;5032508;28;20397;-71
2024/03/24 09:45:47;;;;;;;4.50;3.38;;;;;;;12.57;36.24;92907.72;5033341;28;20611;-71
2024/03/24 09:48:14;;;;;;;7.05;4.65;;;;;;;12.72;37.04;92908.81;5033141;28;20037;-71
2024/03/24 09:50:40;;;;;;;5.53;4.53;;;;;;;12.64;35.61;92915.13;5033010;28;20149;-71
2024/03/24 09:53:07;;;;;;;6.95;4.35;;;;;;;12.63;35.39;92908.25;5032713;28;20124;-71
2024/03/24 09:55:33;;;;;;;8.02;4.88;;;;;;;12.66;35.01;92886.22;5033415;28;20033;-71
2024/03/24 09:57:59;;;;;;;6.13;4.85;;;;;;;12.44;35.81;92892.94;5033423;28;20025;-71
2024/03/24 10:00:26;;;;;;;5.15;3.17;;;;;;;12.39;35.07;92890.53;5033204;28;20164;-71
2024/03/24 10:02:52;;;;;;;5.85;3.83;;;;;;;12.70;35.18;92879.06;5032538;28;20040;-71
2024/03/24 10:05:19;;;;;;;8.10;3.60;;;;;;;12.89;35.50;92877.22;5032556;28;20033;-71
2024/03/24 10:07:45;;;;;;;4.15;3.00;;;;;;;12.82;35.40;92877.06;5032282;28;20037;-71
2024/03/24 10:10:11;;;;;;;7.05;4.32;;;;;;;12.89;35.44;92876.44;5032370;28;20033;-71
2024/03/24 10:12:37;;;;;;;4.38;3.40;;;;;;;13.03;34.99;92865.28;5032368;28;20029;-71
2024/03/24 10:15:33;;;;;;;6.85;3.65;;;;;;;13.57;34.44;92873.19;5031283;28;20060;-71
2024/03/24 10:18:02;;;;;;;8.40;5.00;;;;;;;13.25;33.63;92872.59;5031576;28;20053;-71
2024/03/24 10:20:27;;;;;;;5.10;3.47;;;;;;;13.26;34.43;92863.44;5032227;28;20042;-71
2024/03/24 10:22:54;;;;;;;9.15;4.60;;;;;;;13.40;34.93;92863.72;5032583;28;20049;-71
2024/03/24 10:25:25;;;;;;;6.93;4.35;;;;;;;13.28;34.21;92866.53;5032182;28;20026;-71
2024/03/24 10:27:52;;;;;;;7.47;4.32;;;;;;;13.28;34.28;92872.66;5032286;28;20079;-71
2024/03/24 10:30:18;;;;;;;5.88;3.25;;;;;;;13.38;33.79;92865.97;5031572;28;20526;-71
2024/03/24 10:32:43;;;;;;;5.57;3.67;;;;;;;13.53;34.05;92851.00;5032404;28;20037;-71
2024/03/24 10:35:09;;;;;;;4.15;3.22;;;;;;;13.43;34.12;92852.34;5032295;28;20038;-71
2024/03/24 10:37:35;;;;;;;6.32;3.55;;;;;;;13.71;33.75;92852.09;5032176;28;20034;-71
2024/03/24 10:40:04;;;;;;;4.70;3.10;;;;;;;13.62;33.39;92843.56;5032938;28;20053;-71
2024/03/24 10:42:33;;;;;;;6.05;3.85;;;;;;;13.71;34.35;92844.09;5032789;28;20441;-71
2024/03/24 10:45:04;;;;;;;6.28;4.20;;;;;;;13.61;34.58;92837.44;5031837;28;20498;-71
2024/03/24 10:47:32;;;;;;;10.68;6.50;;;;;;;13.62;33.83;92838.97;5032004;28;20029;-71
2024/03/24 10:49:58;;;;;;;7.00;4.05;;;;;;;13.58;33.95;92832.00;5032054;28;20108;-71
2024/03/24 10:52:29;;;;;;;4.55;3.50;;;;;;;13.51;33.74;92837.97;5031680;28;20065;-71
2024/03/24 10:54:57;;;;;;;8.45;3.58;;;;;;;13.44;32.89;92834.41;5032320;28;20028;-71
2024/03/24 10:57:26;;;;;;;4.80;3.00;;;;;;;13.45;33.04;92828.72;5031467;28;20502;-71
2024/03/24 10:59:53;;;;;;;5.15;3.42;;;;;;;13.57;33.36;92825.88;5031921;28;20053;-71
2024/03/24 11:02:20;;;;;;;9.02;3.97;;;;;;;13.69;33.22;92823.06;5031455;28;20124;-71
2024/03/24 11:04:47;;;;;;;4.30;3.78;;;;;;;13.79;33.08;92815.59;5031420;28;20048;-71
2024/03/24 11:07:14;;;;;;;9.65;4.05;;;;;;;13.75;33.35;92815.53;5029282;28;20029;-70
2024/03/24 11:09:40;;;;;;;5.50;3.40;;;;;;;14.01;36.95;92812.91;5030429;28;20028;-71
2024/03/24 11:12:08;;;;;;;5.00;4.10;;;;;;;14.26;32.92;92823.22;5029771;28;20102;-71
2024/03/24 11:14:34;;;;;;;7.40;4.55;;;;;;;14.38;32.84;92823.78;5030346;28;20051;-71
2024/03/24 11:17:02;;;;;;;6.97;4.43;;;;;;;14.53;32.67;92798.00;5030103;28;20535;-71
2024/03/24 11:19:27;;;;;;;5.97;4.07;;;;;;;14.74;32.28;92790.28;5030200;28;20057;-71
2024/03/24 11:21:53;;;;;;;6.32;4.65;;;;;;;14.42;31.76;92795.16;5030767;28;20055;-71
2024/03/24 11:24:24;;;;;;;5.07;4.15;;;;;;;14.45;33.60;92785.66;5031222;28;20406;-71
2024/03/24 11:26:50;;;;;;;4.10;3.40;;;;;;;14.64;32.18;92790.16;5030605;28;20041;-71
2024/03/24 11:29:48;;;;;;;4.50;3.03;;;;;;;14.40;31.24;92781.41;5031090;28;20029;-71